Time,TemperatureF,DewpointF,PressureIn,WindDirection,WindDirectionDegrees,WindSpeedMPH,WindSpeedGustMPH,Humidity,HourlyPrecipIn,Conditions,Clouds,dailyrainin,SolarRadiationWatts/m^2,SoftwareType,DateUTC
2013-03-05 00:42:00,49.0,26.0,-100.00,South,179,12.0,25.0,41,-99.99,,,0.00,0.000000,,2013-03-05 08:42:00,
2013-03-05 00:52:00,49.0,26.0,-100.00,South,179,12.0,25.0,41,-99.99,,,0.00,0.000000,,2013-03-05 08:52:00,
2013-03-05 01:11:00,49.0,26.0,-100.00,South,179,12.0,25.0,41,-99.99,,,0.00,0.000000,,2013-03-05 09:11:00,
2013-03-05 01:32:00,47.0,27.0,-100.00,SE,142,10.0,18.0,45,-99.99,,,0.00,0.000000,,2013-03-05 09:32:00,
2013-03-05 01:43:00,47.0,27.0,-100.00,SE,142,10.0,18.0,45,-99.99,,,0.00,0.000000,,2013-03-05 09:43:00,
2013-03-05 01:52:00,47.0,27.0,-100.00,SE,142,10.0,18.0,45,-99.99,,,0.00,0.000000,,2013-03-05 09:52:00,
2013-03-05 02:11:00,47.0,27.0,-100.00,SE,142,10.0,18.0,45,-99.99,,,0.00,0.000000,,2013-03-05 10:11:00,
2013-03-05 02:32:00,47.0,32.0,-100.00,SE,132,9.0,13.0,55,0.00,,,0.00,0.000000,,2013-03-05 10:32:00,
2013-03-05 02:42:00,47.0,32.0,-100.00,SE,132,9.0,13.0,55,0.00,,,0.00,0.000000,,2013-03-05 10:42:00,
2013-03-05 02:52:00,47.0,32.0,-100.00,SE,132,9.0,13.0,55,0.00,,,0.00,0.000000,,2013-03-05 10:52:00,
2013-03-05 03:01:00,47.0,32.0,-100.00,SE,132,9.0,13.0,55,0.00,,,0.00,0.000000,,2013-03-05 11:01:00,
2013-03-05 03:11:00,47.0,32.0,-100.00,SE,132,9.0,13.0,55,0.00,,,0.00,0.000000,,2013-03-05 11:11:00,
2013-03-05 03:32:00,47.0,35.0,-100.00,SSE,155,11.0,24.0,64,0.00,,,0.00,0.000000,,2013-03-05 11:32:00,
2013-03-05 03:42:00,47.0,35.0,-100.00,SSE,155,11.0,24.0,64,0.00,,,0.00,0.000000,,2013-03-05 11:42:00,
2013-03-05 03:52:00,47.0,35.0,-100.00,SSE,155,11.0,24.0,64,0.00,,,0.00,0.000000,,2013-03-05 11:52:00,
2013-03-05 04:02:00,47.0,35.0,-100.00,SSE,155,11.0,24.0,64,0.00,,,0.00,0.000000,,2013-03-05 12:02:00,
2013-03-05 04:32:00,45.0,38.0,-100.00,SE,139,14.0,26.0,76,-99.99,,,0.00,0.000000,,2013-03-05 12:32:00,
2013-03-05 04:42:00,45.0,38.0,-100.00,SE,139,14.0,26.0,76,-99.99,,,0.00,0.000000,,2013-03-05 12:42:00,
2013-03-05 04:52:00,45.0,38.0,-100.00,SE,139,14.0,26.0,76,-99.99,,,0.00,0.000000,,2013-03-05 12:52:00,
2013-03-05 05:01:00,45.0,38.0,-100.00,SE,139,14.0,26.0,76,-99.99,,,0.00,0.000000,,2013-03-05 13:01:00,
2013-03-05 05:11:00,45.0,38.0,-100.00,SE,139,14.0,26.0,76,-99.99,,,0.00,0.000000,,2013-03-05 13:11:00,
2013-03-05 05:42:00,44.0,40.0,-100.00,West,263,6.0,19.0,86,0.04,,,0.04,0.000000,,2013-03-05 13:42:00,
2013-03-05 05:52:00,44.0,40.0,-100.00,West,263,6.0,19.0,86,0.04,,,0.04,0.000000,,2013-03-05 13:52:00,
2013-03-05 06:02:00,44.0,40.0,-100.00,West,263,6.0,19.0,86,0.04,,,0.04,0.000000,,2013-03-05 14:02:00,
2013-03-05 06:11:00,44.0,40.0,-100.00,West,263,6.0,19.0,86,0.04,,,0.04,0.000000,,2013-03-05 14:11:00,
2013-03-05 06:32:00,40.0,37.0,-100.00,WSW,249,16.0,26.0,90,0.17,,,0.21,0.000000,,2013-03-05 14:32:00,
2013-03-05 06:42:00,40.0,37.0,-100.00,WSW,249,16.0,26.0,90,0.17,,,0.21,0.000000,,2013-03-05 14:42:00,
2013-03-05 06:52:00,40.0,37.0,-100.00,WSW,249,16.0,26.0,90,0.17,,,0.21,0.000000,,2013-03-05 14:52:00,
2013-03-05 07:01:00,40.0,37.0,-100.00,WSW,249,16.0,26.0,90,0.17,,,0.21,0.000000,,2013-03-05 15:01:00,
2013-03-05 07:11:00,40.0,37.0,-100.00,WSW,249,16.0,26.0,90,0.17,,,0.21,0.000000,,2013-03-05 15:11:00,
2013-03-05 07:32:00,39.0,36.0,-100.00,SSW,203,7.0,18.0,88,0.12,,,0.33,0.000000,,2013-03-05 15:32:00,
2013-03-05 07:42:00,39.0,36.0,-100.00,SSW,203,7.0,18.0,88,0.12,,,0.33,0.000000,,2013-03-05 15:42:00,
2013-03-05 07:52:00,39.0,36.0,-100.00,SSW,203,7.0,18.0,88,0.12,,,0.33,0.000000,,2013-03-05 15:52:00,
2013-03-05 08:01:00,39.0,36.0,-100.00,SSW,203,7.0,18.0,88,0.12,,,0.33,0.000000,,2013-03-05 16:01:00,
2013-03-05 08:11:00,39.0,36.0,-100.00,SSW,203,7.0,18.0,88,0.12,,,0.33,0.000000,,2013-03-05 16:11:00,
2013-03-05 08:32:00,38.0,36.0,-100.00,SSE,152,10.0,20.0,92,0.18,,,0.51,9.000000,,2013-03-05 16:32:00,
2013-03-05 08:42:00,38.0,36.0,-100.00,SSE,152,10.0,20.0,92,0.18,,,0.51,9.000000,,2013-03-05 16:42:00,
2013-03-05 08:52:00,38.0,36.0,-100.00,SSE,152,10.0,20.0,92,0.18,,,0.51,9.000000,,2013-03-05 16:52:00,
2013-03-05 09:01:00,38.0,36.0,-100.00,SSE,152,10.0,20.0,92,0.18,,,0.51,9.000000,,2013-03-05 17:01:00,
2013-03-05 09:11:00,38.0,36.0,-100.00,SSE,152,10.0,20.0,92,0.18,,,0.51,9.000000,,2013-03-05 17:11:00,
2013-03-05 09:32:00,38.0,36.0,-100.00,SSE,155,9.0,19.0,91,0.16,,,-99.99,24.000000,,2013-03-05 17:32:00,
2013-03-05 09:42:00,38.0,36.0,-100.00,SSE,155,9.0,19.0,91,0.16,,,-99.99,24.000000,,2013-03-05 17:42:00,
2013-03-05 09:52:00,38.0,36.0,-100.00,SSE,155,9.0,19.0,91,0.16,,,-99.99,24.000000,,2013-03-05 17:52:00,
2013-03-05 10:01:00,38.0,36.0,-100.00,SSE,155,9.0,19.0,91,0.16,,,-99.99,24.000000,,2013-03-05 18:01:00,
2013-03-05 10:11:00,38.0,36.0,-100.00,SSE,155,9.0,19.0,91,0.16,,,-99.99,24.000000,,2013-03-05 18:11:00,
2013-03-05 10:32:00,38.0,35.0,-100.00,South,173,13.0,20.0,88,0.11,,,0.78,37.000000,,2013-03-05 18:32:00,
2013-03-05 10:42:00,38.0,35.0,-100.00,South,173,13.0,20.0,88,0.11,,,0.78,37.000000,,2013-03-05 18:42:00,
2013-03-05 10:53:00,38.0,35.0,-100.00,South,173,13.0,20.0,88,0.11,,,0.78,37.000000,,2013-03-05 18:53:00,
2013-03-05 11:01:00,38.0,35.0,-100.00,South,173,13.0,20.0,88,0.11,,,0.78,37.000000,,2013-03-05 19:01:00,
2013-03-05 11:11:00,38.0,35.0,-100.00,South,173,13.0,20.0,88,0.11,,,0.78,37.000000,,2013-03-05 19:11:00,
2013-03-05 11:32:00,39.0,36.0,-100.00,SSE,147,7.0,21.0,90,0.14,,,0.92,54.000000,,2013-03-05 19:32:00,
2013-03-05 11:42:00,39.0,36.0,-100.00,SSE,147,7.0,21.0,90,0.14,,,0.92,54.000000,,2013-03-05 19:42:00,
2013-03-05 11:52:00,39.0,36.0,-100.00,SSE,147,7.0,21.0,90,0.14,,,0.92,54.000000,,2013-03-05 19:52:00,
2013-03-05 12:01:00,39.0,36.0,-100.00,SSE,147,7.0,21.0,90,0.14,,,0.92,54.000000,,2013-03-05 20:01:00,
2013-03-05 12:11:00,39.0,36.0,-100.00,SSE,147,7.0,21.0,90,0.14,,,0.92,54.000000,,2013-03-05 20:11:00,
2013-03-05 12:42:00,40.0,38.0,-100.00,SSE,155,5.0,12.0,93,0.07,,,0.99,108.000000,,2013-03-05 20:42:00,
2013-03-05 12:52:00,40.0,38.0,-100.00,SSE,155,5.0,12.0,93,0.07,,,0.99,108.000000,,2013-03-05 20:52:00,
2013-03-05 13:01:00,40.0,38.0,-100.00,SSE,155,5.0,12.0,93,0.07,,,0.99,108.000000,,2013-03-05 21:01:00,
2013-03-05 13:11:00,40.0,38.0,-100.00,SSE,155,5.0,12.0,93,0.07,,,0.99,108.000000,,2013-03-05 21:11:00,
2013-03-05 13:32:00,38.0,36.0,-100.00,SE,134,11.0,16.0,91,0.07,,,1.06,112.000000,,2013-03-05 21:32:00,
2013-03-05 13:42:00,38.0,36.0,-100.00,SE,134,11.0,16.0,91,0.07,,,1.06,112.000000,,2013-03-05 21:42:00,
2013-03-05 13:52:00,38.0,36.0,-100.00,SE,134,11.0,16.0,91,0.07,,,1.06,112.000000,,2013-03-05 21:52:00,
2013-03-05 14:01:00,38.0,36.0,-100.00,SE,134,11.0,16.0,91,0.07,,,1.06,112.000000,,2013-03-05 22:01:00,
2013-03-05 14:11:00,38.0,36.0,-100.00,SE,134,11.0,16.0,91,0.07,,,1.06,112.000000,,2013-03-05 22:11:00,
2013-03-05 14:32:00,38.0,36.0,-100.00,SE,135,11.0,23.0,93,0.07,,,1.13,84.000000,,2013-03-05 22:32:00,
2013-03-05 14:42:00,38.0,36.0,-100.00,SE,135,11.0,23.0,93,0.07,,,1.13,84.000000,,2013-03-05 22:42:00,
2013-03-05 14:52:00,38.0,36.0,-100.00,SE,135,11.0,23.0,93,0.07,,,1.13,84.000000,,2013-03-05 22:52:00,
2013-03-05 15:01:00,38.0,36.0,-100.00,SE,135,11.0,23.0,93,0.07,,,1.13,84.000000,,2013-03-05 23:01:00,
2013-03-05 15:11:00,38.0,36.0,-100.00,SE,135,11.0,23.0,93,0.07,,,1.13,84.000000,,2013-03-05 23:11:00,
2013-03-05 15:32:00,39.0,37.0,-100.00,SE,126,8.0,20.0,93,0.05,,,1.18,84.000000,,2013-03-05 23:32:00,
2013-03-05 15:42:00,39.0,37.0,-100.00,SE,126,8.0,20.0,93,0.05,,,1.18,84.000000,,2013-03-05 23:42:00,
2013-03-05 15:52:00,39.0,37.0,-100.00,SE,126,8.0,20.0,93,0.05,,,1.18,84.000000,,2013-03-05 23:52:00,
2013-03-05 16:01:00,39.0,37.0,-100.00,SE,126,8.0,20.0,93,0.05,,,1.18,84.000000,,2013-03-06 00:01:00,
2013-03-05 16:11:00,39.0,37.0,-100.00,SE,126,8.0,20.0,93,0.05,,,1.18,84.000000,,2013-03-06 00:11:00,
2013-03-05 16:32:00,40.0,39.0,-100.00,ESE,123,7.0,14.0,95,0.04,,,1.22,84.000000,,2013-03-06 00:32:00,
2013-03-05 16:42:00,40.0,39.0,-100.00,ESE,123,7.0,14.0,95,0.04,,,1.22,84.000000,,2013-03-06 00:42:00,
2013-03-05 16:52:00,40.0,39.0,-100.00,ESE,123,7.0,14.0,95,0.04,,,1.22,84.000000,,2013-03-06 00:52:00,
2013-03-05 17:01:00,40.0,39.0,-100.00,ESE,123,7.0,14.0,95,0.04,,,1.22,84.000000,,2013-03-06 01:01:00,
2013-03-05 17:11:00,40.0,39.0,-100.00,ESE,123,7.0,14.0,95,0.04,,,1.22,84.000000,,2013-03-06 01:11:00,
2013-03-05 17:42:00,40.0,39.0,-100.00,East,89,4.0,11.0,95,0.01,,,-99.99,55.000000,,2013-03-06 01:42:00,
2013-03-05 17:52:00,40.0,39.0,-100.00,East,89,4.0,11.0,95,0.01,,,-99.99,55.000000,,2013-03-06 01:52:00,
2013-03-05 18:01:00,40.0,39.0,-100.00,East,89,4.0,11.0,95,0.01,,,-99.99,55.000000,,2013-03-06 02:01:00,
2013-03-05 18:11:00,40.0,39.0,-100.00,East,89,4.0,11.0,95,0.01,,,-99.99,55.000000,,2013-03-06 02:11:00,
2013-03-05 18:32:00,39.0,38.0,-100.00,NE,51,4.0,10.0,97,0.01,,,1.24,10.000000,,2013-03-06 02:32:00,
2013-03-05 18:42:00,39.0,38.0,-100.00,NE,51,4.0,10.0,97,0.01,,,1.24,10.000000,,2013-03-06 02:42:00,
2013-03-05 18:52:00,39.0,38.0,-100.00,NE,51,4.0,10.0,97,0.01,,,1.24,10.000000,,2013-03-06 02:52:00,
2013-03-05 19:01:00,39.0,38.0,-100.00,NE,51,4.0,10.0,97,0.01,,,1.24,10.000000,,2013-03-06 03:01:00,
2013-03-05 19:11:00,39.0,38.0,-100.00,NE,51,4.0,10.0,97,0.01,,,1.24,10.000000,,2013-03-06 03:11:00,
2013-03-05 19:32:00,42.0,40.0,-100.00,SE,144,7.0,12.0,93,0.00,,,1.24,0.000000,,2013-03-06 03:32:00,
2013-03-05 19:42:00,42.0,40.0,-100.00,SE,144,7.0,12.0,93,0.00,,,1.24,0.000000,,2013-03-06 03:42:00,
2013-03-05 19:52:00,42.0,40.0,-100.00,SE,144,7.0,12.0,93,0.00,,,1.24,0.000000,,2013-03-06 03:52:00,
2013-03-05 20:01:00,42.0,40.0,-100.00,SE,144,7.0,12.0,93,0.00,,,1.24,0.000000,,2013-03-06 04:01:00,
2013-03-05 20:11:00,42.0,40.0,-100.00,SE,144,7.0,12.0,93,0.00,,,1.24,0.000000,,2013-03-06 04:11:00,
2013-03-05 20:32:00,41.0,37.0,-100.00,ESE,112,4.0,11.0,84,0.00,,,1.24,0.000000,,2013-03-06 04:32:00,
2013-03-05 20:42:00,41.0,37.0,-100.00,ESE,112,4.0,11.0,84,0.00,,,1.24,0.000000,,2013-03-06 04:42:00,
2013-03-05 20:52:00,41.0,37.0,-100.00,ESE,112,4.0,11.0,84,0.00,,,1.24,0.000000,,2013-03-06 04:52:00,
2013-03-05 21:01:00,41.0,37.0,-100.00,ESE,112,4.0,11.0,84,0.00,,,1.24,0.000000,,2013-03-06 05:01:00,
2013-03-05 21:11:00,41.0,37.0,-100.00,ESE,112,4.0,11.0,84,0.00,,,1.24,0.000000,,2013-03-06 05:11:00,
2013-03-05 21:32:00,40.0,38.0,-100.00,SE,134,8.0,11.0,94,0.00,,,1.24,0.000000,,2013-03-06 05:32:00,
2013-03-05 21:42:00,40.0,38.0,-100.00,SE,134,8.0,11.0,94,0.00,,,1.24,0.000000,,2013-03-06 05:42:00,
2013-03-05 21:52:00,40.0,38.0,-100.00,SE,134,8.0,11.0,94,0.00,,,1.24,0.000000,,2013-03-06 05:52:00,
2013-03-05 22:01:00,40.0,38.0,-100.00,SE,134,8.0,11.0,94,0.00,,,1.24,0.000000,,2013-03-06 06:01:00,
2013-03-05 22:11:00,40.0,38.0,-100.00,SE,134,8.0,11.0,94,0.00,,,1.24,0.000000,,2013-03-06 06:11:00,
2013-03-05 22:32:00,39.0,36.0,-100.00,WSW,255,4.0,13.0,90,0.01,,,1.25,0.000000,,2013-03-06 06:32:00,
2013-03-05 22:42:00,39.0,36.0,-100.00,WSW,255,4.0,13.0,90,0.01,,,1.25,0.000000,,2013-03-06 06:42:00,
2013-03-05 22:52:00,39.0,36.0,-100.00,WSW,255,4.0,13.0,90,0.01,,,1.25,0.000000,,2013-03-06 06:52:00,
2013-03-05 23:01:00,39.0,36.0,-100.00,WSW,255,4.0,13.0,90,0.01,,,1.25,0.000000,,2013-03-06 07:01:00,
2013-03-05 23:11:00,39.0,36.0,-100.00,WSW,255,4.0,13.0,90,0.01,,,1.25,0.000000,,2013-03-06 07:11:00,
2013-03-05 23:32:00,39.0,38.0,-100.00,SSE,161,2.0,7.0,96,0.06,,,1.31,0.000000,,2013-03-06 07:32:00,
2013-03-05 23:42:00,39.0,38.0,-100.00,SSE,161,2.0,7.0,96,0.06,,,1.31,0.000000,,2013-03-06 07:42:00,
2013-03-05 23:52:00,39.0,38.0,-100.00,SSE,161,2.0,7.0,96,0.06,,,1.31,0.000000,,2013-03-06 07:52:00,